Chillicothe, Ohio
Current Conditions -  °F | °C
As of 4:34 PM on Monday 24 Nov 2014 (Local Time) from KRZT Reporting Station
Broken Clouds Broken Clouds  
Wind Chill: 41°   Ceiling: 4100
Heat Index: 48°   Visibility: 10mi
Dew Point: 34°   Wind: 20mph
Humidity: 57%   Direction: 250°WSW
Pressure: 29.7"   Gusts: 28mph
Location:  39.34°N, 82.97°W
Report Text: KRZT 242134Z AUTO 25017G24KT 10SM BKN041 09/01 A2970 RMK AO2
Loading
Personal Weather Stations






























Interactive Weather Map New forecast layout! Learn more

10-Day Weather Forecast

Advertisements
Track Severe Weather on mobile